sensor_id;sensor_type;location;lat;lon;timestamp;pressure;altitude;pressure_sealevel;temperature;humidity
25420;BME280;13354;48.174;11.566;2023-03-08T00:01:11;94392.44;;;5.14;54.73
25420;BME280;13354;48.174;11.566;2023-03-08T00:03:37;94385.00;;;5.18;54.12
25420;BME280;13354;48.174;11.566;2023-03-08T00:06:03;94383.19;;;5.18;54.16
25420;BME280;13354;48.174;11.566;2023-03-08T00:08:28;94398.31;;;5.16;54.22
25420;BME280;13354;48.174;11.566;2023-03-08T00:10:53;94401.09;;;5.15;54.44
25420;BME280;13354;48.174;11.566;2023-03-08T00:13:18;94406.06;;;5.03;54.72
25420;BME280;13354;48.174;11.566;2023-03-08T00:15:44;94398.44;;;5.08;54.34
25420;BME280;13354;48.174;11.566;2023-03-08T00:18:09;94405.50;;;5.07;54.16
25420;BME280;13354;48.174;11.566;2023-03-08T00:20:34;94399.78;;;4.97;54.33
25420;BME280;13354;48.174;11.566;2023-03-08T00:22:59;94402.19;;;4.99;54.15
25420;BME280;13354;48.174;11.566;2023-03-08T00:25:24;94405.25;;;5.02;53.80
25420;BME280;13354;48.174;11.566;2023-03-08T00:27:50;94403.63;;;5.01;53.95
25420;BME280;13354;48.174;11.566;2023-03-08T00:30:15;94402.63;;;5.02;53.83
25420;BME280;13354;48.174;11.566;2023-03-08T00:32:40;94395.50;;;4.96;54.11
25420;BME280;13354;48.174;11.566;2023-03-08T00:35:05;94390.97;;;4.83;54.78
25420;BME280;13354;48.174;11.566;2023-03-08T00:37:31;94406.84;;;4.75;54.70
25420;BME280;13354;48.174;11.566;2023-03-08T00:39:56;94406.78;;;4.90;54.40
25420;BME280;13354;48.174;11.566;2023-03-08T00:42:22;94406.25;;;4.80;54.64
25420;BME280;13354;48.174;11.566;2023-03-08T00:44:47;94399.06;;;4.89;54.19
25420;BME280;13354;48.174;11.566;2023-03-08T00:47:13;94392.72;;;4.76;54.90
25420;BME280;13354;48.174;11.566;2023-03-08T00:49:38;94400.59;;;4.76;54.85
25420;BME280;13354;48.174;11.566;2023-03-08T00:52:04;94400.50;;;4.70;54.88
25420;BME280;13354;48.174;11.566;2023-03-08T00:54:29;94405.06;;;4.61;54.96
25420;BME280;13354;48.174;11.566;2023-03-08T00:56:55;94395.91;;;4.72;54.63
25420;BME280;13354;48.174;11.566;2023-03-08T00:59:20;94396.72;;;4.72;54.64
25420;BME280;13354;48.174;11.566;2023-03-08T01:01:45;94391.09;;;4.75;54.44
25420;BME280;13354;48.174;11.566;2023-03-08T01:04:10;94404.38;;;4.74;54.51
25420;BME280;13354;48.174;11.566;2023-03-08T01:06:37;94411.25;;;4.75;54.35
25420;BME280;13354;48.174;11.566;2023-03-08T01:09:02;94406.69;;;4.62;54.77
25420;BME280;13354;48.174;11.566;2023-03-08T01:11:27;94402.59;;;4.53;55.02
25420;BME280;13354;48.174;11.566;2023-03-08T01:13:52;94400.28;;;4.65;54.34
25420;BME280;13354;48.174;11.566;2023-03-08T01:16:19;94404.56;;;4.51;54.71
25420;BME280;13354;48.174;11.566;2023-03-08T01:18:44;94396.69;;;4.51;54.72
25420;BME280;13354;48.174;11.566;2023-03-08T01:21:10;94383.34;;;4.67;54.33
25420;BME280;13354;48.174;11.566;2023-03-08T01:23:35;94383.22;;;4.54;54.85
25420;BME280;13354;48.174;11.566;2023-03-08T01:26:02;94385.41;;;4.50;54.63
25420;BME280;13354;48.174;11.566;2023-03-08T01:28:27;94389.88;;;4.56;54.45
25420;BME280;13354;48.174;11.566;2023-03-08T01:30:53;94401.34;;;4.34;55.31
25420;BME280;13354;48.174;11.566;2023-03-08T01:33:18;94406.22;;;4.37;54.99
25420;BME280;13354;48.174;11.566;2023-03-08T01:35:44;94392.50;;;4.35;55.37
25420;BME280;13354;48.174;11.566;2023-03-08T01:38:10;94387.06;;;4.36;54.93
25420;BME280;13354;48.174;11.566;2023-03-08T01:40:35;94385.97;;;4.46;55.00
25420;BME280;13354;48.174;11.566;2023-03-08T01:43:09;94404.16;;;4.32;55.31
25420;BME280;13354;48.174;11.566;2023-03-08T01:48:19;94396.94;;;4.34;55.08
25420;BME280;13354;48.174;11.566;2023-03-08T01:50:45;94398.22;;;4.24;55.29
25420;BME280;13354;48.174;11.566;2023-03-08T01:53:10;94386.16;;;4.44;54.89
25420;BME280;13354;48.174;11.566;2023-03-08T01:55:37;94390.19;;;4.25;55.32
25420;BME280;13354;48.174;11.566;2023-03-08T01:58:02;94377.28;;;4.24;55.34
25420;BME280;13354;48.174;11.566;2023-03-08T02:00:27;94369.13;;;4.19;55.39
25420;BME280;13354;48.174;11.566;2023-03-08T02:02:57;94374.16;;;4.35;55.04
25420;BME280;13354;48.174;11.566;2023-03-08T02:05:23;94364.97;;;4.24;55.26
25420;BME280;13354;48.174;11.566;2023-03-08T02:07:49;94362.72;;;4.21;55.44
25420;BME280;13354;48.174;11.566;2023-03-08T02:10:14;94361.47;;;4.17;55.65
25420;BME280;13354;48.174;11.566;2023-03-08T02:12:39;94360.34;;;4.26;55.46
25420;BME280;13354;48.174;11.566;2023-03-08T02:15:05;94359.47;;;4.19;55.61
25420;BME280;13354;48.174;11.566;2023-03-08T02:17:33;94357.41;;;4.15;55.58
25420;BME280;13354;48.174;11.566;2023-03-08T02:20:04;94355.72;;;4.07;56.08
25420;BME280;13354;48.174;11.566;2023-03-08T02:22:36;94350.00;;;4.18;55.56
25420;BME280;13354;48.174;11.566;2023-03-08T02:25:02;94350.72;;;4.12;55.89
25420;BME280;13354;48.174;11.566;2023-03-08T02:27:27;94351.41;;;3.99;56.21
25420;BME280;13354;48.174;11.566;2023-03-08T02:29:52;94351.16;;;3.94;56.52
25420;BME280;13354;48.174;11.566;2023-03-08T02:32:18;94354.03;;;3.99;56.49
25420;BME280;13354;48.174;11.566;2023-03-08T02:34:43;94350.03;;;4.03;56.72
25420;BME280;13354;48.174;11.566;2023-03-08T02:37:08;94346.97;;;4.00;56.58
25420;BME280;13354;48.174;11.566;2023-03-08T02:39:33;94347.69;;;3.94;56.83
25420;BME280;13354;48.174;11.566;2023-03-08T02:41:59;94338.03;;;4.09;56.41
25420;BME280;13354;48.174;11.566;2023-03-08T02:44:24;94334.59;;;3.94;57.06
25420;BME280;13354;48.174;11.566;2023-03-08T02:46:49;94335.72;;;3.84;57.09
25420;BME280;13354;48.174;11.566;2023-03-08T02:49:15;94329.31;;;3.87;56.91
25420;BME280;13354;48.174;11.566;2023-03-08T02:51:40;94329.56;;;3.92;56.81
25420;BME280;13354;48.174;11.566;2023-03-08T02:54:05;94333.63;;;3.95;56.76
25420;BME280;13354;48.174;11.566;2023-03-08T02:56:31;94331.75;;;3.88;57.02
25420;BME280;13354;48.174;11.566;2023-03-08T02:58:56;94323.53;;;3.92;57.32
25420;BME280;13354;48.174;11.566;2023-03-08T03:01:21;94324.59;;;3.82;57.25
25420;BME280;13354;48.174;11.566;2023-03-08T03:03:46;94323.88;;;3.88;57.05
25420;BME280;13354;48.174;11.566;2023-03-08T03:06:15;94326.34;;;3.75;57.45
25420;BME280;13354;48.174;11.566;2023-03-08T03:08:41;94322.09;;;3.74;57.50
25420;BME280;13354;48.174;11.566;2023-03-08T03:11:13;94332.88;;;3.65;57.89
25420;BME280;13354;48.174;11.566;2023-03-08T03:13:39;94316.97;;;3.66;58.12
25420;BME280;13354;48.174;11.566;2023-03-08T03:16:08;94329.34;;;3.57;58.23
25420;BME280;13354;48.174;11.566;2023-03-08T03:18:33;94324.03;;;3.66;58.15
25420;BME280;13354;48.174;11.566;2023-03-08T03:21:05;94318.78;;;3.51;58.53
25420;BME280;13354;48.174;11.566;2023-03-08T03:23:31;94317.31;;;3.78;58.07
25420;BME280;13354;48.174;11.566;2023-03-08T03:25:56;94312.91;;;3.63;58.34
25420;BME280;13354;48.174;11.566;2023-03-08T03:28:27;94317.22;;;3.71;58.03
25420;BME280;13354;48.174;11.566;2023-03-08T03:30:52;94301.88;;;3.68;58.03
25420;BME280;13354;48.174;11.566;2023-03-08T03:33:17;94309.69;;;3.61;58.19
25420;BME280;13354;48.174;11.566;2023-03-08T03:35:43;94318.06;;;3.57;58.40
25420;BME280;13354;48.174;11.566;2023-03-08T03:38:08;94309.41;;;3.56;58.49
25420;BME280;13354;48.174;11.566;2023-03-08T03:40:33;94311.19;;;3.71;58.10
25420;BME280;13354;48.174;11.566;2023-03-08T03:42:58;94311.09;;;3.64;58.16
25420;BME280;13354;48.174;11.566;2023-03-08T03:45:23;94299.00;;;3.63;58.36
25420;BME280;13354;48.174;11.566;2023-03-08T03:47:49;94296.84;;;3.67;58.37
25420;BME280;13354;48.174;11.566;2023-03-08T03:50:14;94296.59;;;3.61;58.42
25420;BME280;13354;48.174;11.566;2023-03-08T03:52:39;94288.00;;;3.68;58.30
25420;BME280;13354;48.174;11.566;2023-03-08T03:55:04;94296.03;;;3.66;58.46
25420;BME280;13354;48.174;11.566;2023-03-08T03:57:30;94299.50;;;3.88;57.64
25420;BME280;13354;48.174;11.566;2023-03-08T03:59:55;94296.66;;;3.68;58.21
25420;BME280;13354;48.174;11.566;2023-03-08T04:02:20;94298.22;;;3.62;58.64
25420;BME280;13354;48.174;11.566;2023-03-08T04:04:47;94294.75;;;3.77;58.26
25420;BME280;13354;48.174;11.566;2023-03-08T04:07:12;94293.41;;;3.66;58.60
25420;BME280;13354;48.174;11.566;2023-03-08T04:09:38;94284.69;;;3.59;58.51
25420;BME280;13354;48.174;11.566;2023-03-08T04:12:03;94290.31;;;3.77;58.20
25420;BME280;13354;48.174;11.566;2023-03-08T04:14:29;94289.44;;;3.70;58.65
25420;BME280;13354;48.174;11.566;2023-03-08T04:16:55;94283.84;;;3.73;57.98
25420;BME280;13354;48.174;11.566;2023-03-08T04:19:20;94281.47;;;3.78;58.04
25420;BME280;13354;48.174;11.566;2023-03-08T04:21:45;94277.84;;;3.58;58.72
25420;BME280;13354;48.174;11.566;2023-03-08T04:24:10;94282.69;;;3.61;58.65
25420;BME280;13354;48.174;11.566;2023-03-08T04:26:35;94278.53;;;3.67;58.69
25420;BME280;13354;48.174;11.566;2023-03-08T04:29:02;94265.25;;;3.68;58.51
25420;BME280;13354;48.174;11.566;2023-03-08T04:31:30;94259.19;;;3.68;58.74
25420;BME280;13354;48.174;11.566;2023-03-08T04:33:55;94256.22;;;3.71;59.05
25420;BME280;13354;48.174;11.566;2023-03-08T04:36:22;94247.72;;;3.83;58.20
25420;BME280;13354;48.174;11.566;2023-03-08T04:38:47;94258.47;;;3.74;58.74
25420;BME280;13354;48.174;11.566;2023-03-08T04:41:12;94252.38;;;3.88;58.36
25420;BME280;13354;48.174;11.566;2023-03-08T04:43:42;94257.63;;;3.88;58.47
25420;BME280;13354;48.174;11.566;2023-03-08T04:46:08;94254.81;;;3.90;58.19
25420;BME280;13354;48.174;11.566;2023-03-08T04:48:33;94241.72;;;3.90;58.27
25420;BME280;13354;48.174;11.566;2023-03-08T04:50:59;94242.16;;;4.15;57.67
25420;BME280;13354;48.174;11.566;2023-03-08T04:53:25;94235.25;;;4.07;58.08
25420;BME280;13354;48.174;11.566;2023-03-08T04:55:51;94227.59;;;4.05;58.04
25420;BME280;13354;48.174;11.566;2023-03-08T04:58:16;94227.16;;;4.02;58.46
25420;BME280;13354;48.174;11.566;2023-03-08T05:00:42;94229.00;;;4.08;58.08
25420;BME280;13354;48.174;11.566;2023-03-08T05:03:07;94219.47;;;4.00;58.10
25420;BME280;13354;48.174;11.566;2023-03-08T05:05:32;94226.22;;;4.09;57.91
25420;BME280;13354;48.174;11.566;2023-03-08T05:07:58;94223.69;;;4.01;58.42
25420;BME280;13354;48.174;11.566;2023-03-08T05:10:27;94216.13;;;4.06;58.34
25420;BME280;13354;48.174;11.566;2023-03-08T05:12:52;94211.44;;;4.02;58.33
25420;BME280;13354;48.174;11.566;2023-03-08T05:15:17;94203.69;;;3.94;58.74
25420;BME280;13354;48.174;11.566;2023-03-08T05:17:43;94193.41;;;3.92;58.86
25420;BME280;13354;48.174;11.566;2023-03-08T05:20:08;94200.19;;;4.08;58.56
25420;BME280;13354;48.174;11.566;2023-03-08T05:22:34;94189.25;;;3.98;58.71
25420;BME280;13354;48.174;11.566;2023-03-08T05:24:59;94191.91;;;4.04;58.75
25420;BME280;13354;48.174;11.566;2023-03-08T05:27:24;94184.75;;;3.92;58.85
25420;BME280;13354;48.174;11.566;2023-03-08T05:29:50;94181.00;;;4.01;58.66
25420;BME280;13354;48.174;11.566;2023-03-08T05:32:15;94183.44;;;4.02;59.01
25420;BME280;13354;48.174;11.566;2023-03-08T05:34:41;94183.81;;;3.99;59.10
25420;BME280;13354;48.174;11.566;2023-03-08T05:37:06;94182.59;;;3.95;59.16
25420;BME280;13354;48.174;11.566;2023-03-08T05:39:31;94180.69;;;4.10;58.69
25420;BME280;13354;48.174;11.566;2023-03-08T05:41:56;94167.75;;;4.02;58.98
25420;BME280;13354;48.174;11.566;2023-03-08T05:44:21;94168.34;;;4.04;59.21
25420;BME280;13354;48.174;11.566;2023-03-08T05:46:50;94167.22;;;4.14;59.07
25420;BME280;13354;48.174;11.566;2023-03-08T05:49:15;94168.84;;;4.15;59.25
25420;BME280;13354;48.174;11.566;2023-03-08T05:51:40;94166.09;;;4.01;59.37
25420;BME280;13354;48.174;11.566;2023-03-08T05:54:05;94160.91;;;4.08;59.62
25420;BME280;13354;48.174;11.566;2023-03-08T05:56:31;94157.56;;;4.14;59.40
25420;BME280;13354;48.174;11.566;2023-03-08T05:58:56;94152.31;;;4.14;59.43
25420;BME280;13354;48.174;11.566;2023-03-08T06:01:22;94164.59;;;4.14;60.07
25420;BME280;13354;48.174;11.566;2023-03-08T06:03:49;94166.50;;;4.26;59.42
25420;BME280;13354;48.174;11.566;2023-03-08T06:06:15;94156.13;;;4.11;59.99
25420;BME280;13354;48.174;11.566;2023-03-08T06:08:41;94155.22;;;4.26;59.99
25420;BME280;13354;48.174;11.566;2023-03-08T06:11:06;94157.16;;;4.39;59.39
25420;BME280;13354;48.174;11.566;2023-03-08T06:13:31;94163.50;;;4.29;59.85
25420;BME280;13354;48.174;11.566;2023-03-08T06:15:57;94159.13;;;4.36;59.94
25420;BME280;13354;48.174;11.566;2023-03-08T06:18:23;94164.31;;;4.30;60.06
25420;BME280;13354;48.174;11.566;2023-03-08T06:20:58;94163.09;;;4.54;59.62
25420;BME280;13354;48.174;11.566;2023-03-08T06:23:24;94171.81;;;4.33;60.34
25420;BME280;13354;48.174;11.566;2023-03-08T06:25:50;94157.91;;;4.60;59.76
25420;BME280;13354;48.174;11.566;2023-03-08T06:28:15;94159.25;;;4.56;59.82
25420;BME280;13354;48.174;11.566;2023-03-08T06:30:40;94164.50;;;4.56;60.28
25420;BME280;13354;48.174;11.566;2023-03-08T06:33:05;94164.03;;;4.46;60.44
25420;BME280;13354;48.174;11.566;2023-03-08T06:35:31;94163.50;;;4.57;59.91
25420;BME280;13354;48.174;11.566;2023-03-08T06:37:56;94168.31;;;4.54;60.44
25420;BME280;13354;48.174;11.566;2023-03-08T06:40:21;94175.19;;;4.55;60.63
25420;BME280;13354;48.174;11.566;2023-03-08T06:42:46;94169.41;;;4.66;60.71
25420;BME280;13354;48.174;11.566;2023-03-08T06:45:12;94174.31;;;4.76;60.21
25420;BME280;13354;48.174;11.566;2023-03-08T06:47:37;94171.84;;;4.68;60.03
25420;BME280;13354;48.174;11.566;2023-03-08T06:50:02;94173.41;;;4.62;60.19
25420;BME280;13354;48.174;11.566;2023-03-08T06:52:27;94171.66;;;4.69;60.17
25420;BME280;13354;48.174;11.566;2023-03-08T06:54:58;94173.88;;;4.72;60.24
25420;BME280;13354;48.174;11.566;2023-03-08T06:57:24;94175.06;;;4.70;60.29
25420;BME280;13354;48.174;11.566;2023-03-08T06:59:49;94170.94;;;4.89;59.77
25420;BME280;13354;48.174;11.566;2023-03-08T07:02:14;94169.94;;;4.90;59.79
25420;BME280;13354;48.174;11.566;2023-03-08T07:04:39;94169.50;;;4.79;59.72
25420;BME280;13354;48.174;11.566;2023-03-08T07:07:04;94174.56;;;4.88;59.97
25420;BME280;13354;48.174;11.566;2023-03-08T07:09:31;94169.97;;;4.96;60.84
25420;BME280;13354;48.174;11.566;2023-03-08T07:11:57;94168.63;;;5.07;60.33
25420;BME280;13354;48.174;11.566;2023-03-08T07:14:22;94178.31;;;5.06;60.30
25420;BME280;13354;48.174;11.566;2023-03-08T07:16:47;94181.72;;;5.07;60.42
25420;BME280;13354;48.174;11.566;2023-03-08T07:19:12;94184.94;;;5.02;60.47
25420;BME280;13354;48.174;11.566;2023-03-08T07:21:37;94184.34;;;5.07;60.07
25420;BME280;13354;48.174;11.566;2023-03-08T07:24:03;94175.19;;;5.31;58.60
25420;BME280;13354;48.174;11.566;2023-03-08T07:26:28;94194.91;;;5.20;59.53
25420;BME280;13354;48.174;11.566;2023-03-08T07:28:53;94189.66;;;5.20;59.20
25420;BME280;13354;48.174;11.566;2023-03-08T07:31:19;94203.16;;;5.17;58.88
25420;BME280;13354;48.174;11.566;2023-03-08T07:33:45;94198.94;;;5.16;58.76
25420;BME280;13354;48.174;11.566;2023-03-08T07:36:10;94178.41;;;5.33;58.54
25420;BME280;13354;48.174;11.566;2023-03-08T07:38:35;94193.91;;;5.21;58.76
25420;BME280;13354;48.174;11.566;2023-03-08T07:41:00;94183.84;;;5.25;58.50
25420;BME280;13354;48.174;11.566;2023-03-08T07:43:25;94169.28;;;5.16;58.58
25420;BME280;13354;48.174;11.566;2023-03-08T07:45:51;94171.91;;;5.16;59.06
25420;BME280;13354;48.174;11.566;2023-03-08T07:48:16;94176.16;;;5.23;58.86
25420;BME280;13354;48.174;11.566;2023-03-08T07:50:41;94173.53;;;5.23;58.79
25420;BME280;13354;48.174;11.566;2023-03-08T07:53:06;94167.72;;;5.35;58.64
25420;BME280;13354;48.174;11.566;2023-03-08T07:55:32;94158.25;;;5.40;58.70
25420;BME280;13354;48.174;11.566;2023-03-08T07:57:57;94157.91;;;5.56;57.58
25420;BME280;13354;48.174;11.566;2023-03-08T08:00:22;94139.72;;;5.55;58.18
25420;BME280;13354;48.174;11.566;2023-03-08T08:02:48;94147.19;;;5.58;58.09
25420;BME280;13354;48.174;11.566;2023-03-08T08:05:13;94138.94;;;5.68;58.78
25420;BME280;13354;48.174;11.566;2023-03-08T08:07:38;94111.88;;;5.74;58.15
25420;BME280;13354;48.174;11.566;2023-03-08T08:10:03;94117.78;;;5.96;57.51
25420;BME280;13354;48.174;11.566;2023-03-08T08:12:29;94123.19;;;5.81;57.44
25420;BME280;13354;48.174;11.566;2023-03-08T08:14:54;94117.78;;;5.89;57.34
25420;BME280;13354;48.174;11.566;2023-03-08T08:17:20;94096.78;;;6.02;56.54
25420;BME280;13354;48.174;11.566;2023-03-08T08:19:45;94105.88;;;6.07;56.38
25420;BME280;13354;48.174;11.566;2023-03-08T08:22:11;94095.75;;;6.17;56.40
25420;BME280;13354;48.174;11.566;2023-03-08T08:24:36;94088.91;;;6.16;56.77
25420;BME280;13354;48.174;11.566;2023-03-08T08:27:01;94083.66;;;6.22;56.44
25420;BME280;13354;48.174;11.566;2023-03-08T08:29:26;94084.22;;;6.18;56.02
25420;BME280;13354;48.174;11.566;2023-03-08T08:31:51;94074.34;;;6.13;55.99
25420;BME280;13354;48.174;11.566;2023-03-08T08:34:17;94080.41;;;6.14;56.02
25420;BME280;13354;48.174;11.566;2023-03-08T08:36:43;94066.47;;;6.20;55.45
25420;BME280;13354;48.174;11.566;2023-03-08T08:39:08;94056.75;;;6.07;56.11
25420;BME280;13354;48.174;11.566;2023-03-08T08:41:33;94038.19;;;6.09;56.35
25420;BME280;13354;48.174;11.566;2023-03-08T08:43:58;94034.13;;;6.06;56.37
25420;BME280;13354;48.174;11.566;2023-03-08T08:46:24;94021.75;;;6.33;55.25
25420;BME280;13354;48.174;11.566;2023-03-08T08:48:51;94020.19;;;6.12;56.06
25420;BME280;13354;48.174;11.566;2023-03-08T08:51:17;94015.13;;;6.11;56.40
25420;BME280;13354;48.174;11.566;2023-03-08T08:53:42;93999.34;;;6.24;56.15
25420;BME280;13354;48.174;11.566;2023-03-08T08:56:15;93996.88;;;6.36;56.32
25420;BME280;13354;48.174;11.566;2023-03-08T08:58:40;93984.56;;;6.29;55.82
25420;BME280;13354;48.174;11.566;2023-03-08T09:04:08;93977.69;;;6.35;55.00
25420;BME280;13354;48.174;11.566;2023-03-08T09:06:33;93974.63;;;6.38;55.13
25420;BME280;13354;48.174;11.566;2023-03-08T09:08:58;93974.88;;;6.23;55.23
25420;BME280;13354;48.174;11.566;2023-03-08T09:11:24;93973.69;;;6.26;55.46
25420;BME280;13354;48.174;11.566;2023-03-08T09:13:50;93971.25;;;6.24;55.64
25420;BME280;13354;48.174;11.566;2023-03-08T09:16:20;93966.34;;;6.41;55.50
25420;BME280;13354;48.174;11.566;2023-03-08T09:18:46;93970.28;;;6.64;55.16
25420;BME280;13354;48.174;11.566;2023-03-08T09:21:11;93948.91;;;6.53;54.80
25420;BME280;13354;48.174;11.566;2023-03-08T09:23:37;93948.09;;;6.53;54.68
25420;BME280;13354;48.174;11.566;2023-03-08T09:26:02;93954.72;;;6.62;54.21
25420;BME280;13354;48.174;11.566;2023-03-08T09:28:28;93942.91;;;6.78;54.37
25420;BME280;13354;48.174;11.566;2023-03-08T09:30:54;93942.00;;;6.59;54.85
25420;BME280;13354;48.174;11.566;2023-03-08T09:33:19;93953.09;;;6.68;53.89
25420;BME280;13354;48.174;11.566;2023-03-08T09:35:53;93940.84;;;6.48;54.95
25420;BME280;13354;48.174;11.566;2023-03-08T09:38:18;93943.88;;;6.52;55.41
25420;BME280;13354;48.174;11.566;2023-03-08T09:41:08;93944.97;;;6.69;54.67
25420;BME280;13354;48.174;11.566;2023-03-08T09:43:34;93930.59;;;6.72;54.61
25420;BME280;13354;48.174;11.566;2023-03-08T09:46:04;93917.72;;;6.64;55.24
25420;BME280;13354;48.174;11.566;2023-03-08T09:48:29;93925.09;;;6.80;54.99
25420;BME280;13354;48.174;11.566;2023-03-08T09:50:57;93930.16;;;6.82;54.81
25420;BME280;13354;48.174;11.566;2023-03-08T09:53:39;93933.97;;;6.86;54.57
25420;BME280;13354;48.174;11.566;2023-03-08T09:58:49;93938.63;;;7.15;54.10
25420;BME280;13354;48.174;11.566;2023-03-08T10:01:23;93911.25;;;7.23;53.64
25420;BME280;13354;48.174;11.566;2023-03-08T10:11:28;93919.09;;;7.30;53.61
25420;BME280;13354;48.174;11.566;2023-03-08T10:13:55;93913.94;;;7.41;53.50
25420;BME280;13354;48.174;11.566;2023-03-08T10:16:35;93915.16;;;7.39;53.49
25420;BME280;13354;48.174;11.566;2023-03-08T10:21:47;93914.06;;;7.21;54.11
25420;BME280;13354;48.174;11.566;2023-03-08T10:26:44;93903.47;;;7.35;54.10
25420;BME280;13354;48.174;11.566;2023-03-08T10:29:10;93903.06;;;7.56;53.34
25420;BME280;13354;48.174;11.566;2023-03-08T10:31:35;93910.50;;;7.66;53.77
25420;BME280;13354;48.174;11.566;2023-03-08T10:34:17;93930.72;;;7.65;53.52
25420;BME280;13354;48.174;11.566;2023-03-08T10:36:50;93932.94;;;7.68;53.41
25420;BME280;13354;48.174;11.566;2023-03-08T10:39:16;93930.84;;;7.77;53.19
25420;BME280;13354;48.174;11.566;2023-03-08T10:41:44;93926.66;;;7.88;52.68
25420;BME280;13354;48.174;11.566;2023-03-08T10:46:54;93941.47;;;7.89;53.22
25420;BME280;13354;48.174;11.566;2023-03-08T10:49:21;93948.06;;;7.98;54.00
25420;BME280;13354;48.174;11.566;2023-03-08T10:51:51;93955.66;;;7.88;54.70
25420;BME280;13354;48.174;11.566;2023-03-08T10:54:17;93945.06;;;7.69;56.85
25420;BME280;13354;48.174;11.566;2023-03-08T10:56:43;93937.63;;;7.66;59.90
25420;BME280;13354;48.174;11.566;2023-03-08T10:59:20;93929.66;;;7.73;60.42
25420;BME280;13354;48.174;11.566;2023-03-08T11:01:53;93941.88;;;7.42;61.54
25420;BME280;13354;48.174;11.566;2023-03-08T11:04:19;93938.53;;;7.29;62.17
25420;BME280;13354;48.174;11.566;2023-03-08T11:06:45;93933.97;;;7.42;62.50
25420;BME280;13354;48.174;11.566;2023-03-08T11:09:43;93940.03;;;7.43;63.82
25420;BME280;13354;48.174;11.566;2023-03-08T11:12:02;93943.09;;;7.40;63.98
25420;BME280;13354;48.174;11.566;2023-03-08T11:14:27;93939.72;;;7.58;62.06
25420;BME280;13354;48.174;11.566;2023-03-08T11:25:02;93934.56;;;7.44;62.58
25420;BME280;13354;48.174;11.566;2023-03-08T11:27:34;93932.63;;;7.33;62.79
25420;BME280;13354;48.174;11.566;2023-03-08T11:35:29;93901.38;;;7.18;67.41
25420;BME280;13354;48.174;11.566;2023-03-08T11:38:05;93890.91;;;7.12;68.32
25420;BME280;13354;48.174;11.566;2023-03-08T11:48:43;93842.56;;;7.06;69.34
25420;BME280;13354;48.174;11.566;2023-03-08T11:54:18;93825.69;;;7.14;67.73
25420;BME280;13354;48.174;11.566;2023-03-08T11:56:53;93816.88;;;7.01;67.47
25420;BME280;13354;48.174;11.566;2023-03-08T11:59:39;93813.22;;;7.28;66.31
25420;BME280;13354;48.174;11.566;2023-03-08T12:04:39;93808.22;;;7.44;66.18
25420;BME280;13354;48.174;11.566;2023-03-08T12:07:08;93813.13;;;7.59;64.64
25420;BME280;13354;48.174;11.566;2023-03-08T12:12:29;93804.47;;;7.70;64.32
25420;BME280;13354;48.174;11.566;2023-03-08T12:15:28;93803.22;;;7.73;64.72
25420;BME280;13354;48.174;11.566;2023-03-08T12:20:42;93797.44;;;8.01;63.59
25420;BME280;13354;48.174;11.566;2023-03-08T12:23:19;93803.81;;;8.23;62.08
25420;BME280;13354;48.174;11.566;2023-03-08T12:25:47;93813.59;;;8.35;61.86
25420;BME280;13354;48.174;11.566;2023-03-08T12:33:38;93795.84;;;8.60;60.82
25420;BME280;13354;48.174;11.566;2023-03-08T12:36:04;93802.97;;;8.71;59.72
25420;BME280;13354;48.174;11.566;2023-03-08T12:38:39;93791.63;;;8.83;59.60
25420;BME280;13354;48.174;11.566;2023-03-08T12:41:19;93793.72;;;8.92;59.56
25420;BME280;13354;48.174;11.566;2023-03-08T12:43:45;93812.22;;;9.04;59.53
25420;BME280;13354;48.174;11.566;2023-03-08T12:46:10;93786.03;;;8.91;59.86
25420;BME280;13354;48.174;11.566;2023-03-08T12:58:38;93796.84;;;9.48;59.57
25420;BME280;13354;48.174;11.566;2023-03-08T13:01:21;93796.63;;;9.38;59.85
25420;BME280;13354;48.174;11.566;2023-03-08T13:03:47;93786.75;;;9.45;59.94
25420;BME280;13354;48.174;11.566;2023-03-08T13:11:39;93795.34;;;9.76;61.46
25420;BME280;13354;48.174;11.566;2023-03-08T13:14:22;93794.00;;;9.90;61.54
25420;BME280;13354;48.174;11.566;2023-03-08T13:16:48;93807.56;;;9.93;62.46
25420;BME280;13354;48.174;11.566;2023-03-08T13:21:39;93770.56;;;10.34;62.70
25420;BME280;13354;48.174;11.566;2023-03-08T13:29:40;93781.06;;;11.25;61.41
25420;BME280;13354;48.174;11.566;2023-03-08T13:32:11;93757.53;;;11.45;60.37
25420;BME280;13354;48.174;11.566;2023-03-08T13:34:37;93768.13;;;11.45;60.40
25420;BME280;13354;48.174;11.566;2023-03-08T13:37:05;93835.06;;;11.57;60.14
25420;BME280;13354;48.174;11.566;2023-03-08T13:39:30;93786.94;;;11.66;60.06
25420;BME280;13354;48.174;11.566;2023-03-08T13:42:11;93787.84;;;11.71;59.96
25420;BME280;13354;48.174;11.566;2023-03-08T13:44:37;93796.00;;;11.70;59.65
25420;BME280;13354;48.174;11.566;2023-03-08T13:47:03;93766.84;;;11.70;59.97
25420;BME280;13354;48.174;11.566;2023-03-08T13:49:37;93792.72;;;11.63;60.36
25420;BME280;13354;48.174;11.566;2023-03-08T13:52:12;93781.59;;;11.60;60.76
25420;BME280;13354;48.174;11.566;2023-03-08T13:54:41;93814.47;;;11.81;60.16
25420;BME280;13354;48.174;11.566;2023-03-08T13:57:28;93808.84;;;11.78;59.64
25420;BME280;13354;48.174;11.566;2023-03-08T13:59:55;93787.84;;;11.71;60.03
25420;BME280;13354;48.174;11.566;2023-03-08T14:02:22;93781.81;;;11.59;60.60
25420;BME280;13354;48.174;11.566;2023-03-08T14:04:47;93792.63;;;11.74;60.53
25420;BME280;13354;48.174;11.566;2023-03-08T14:07:26;93785.84;;;11.45;60.83
25420;BME280;13354;48.174;11.566;2023-03-08T14:09:52;93783.09;;;11.34;61.25
25420;BME280;13354;48.174;11.566;2023-03-08T14:12:18;93780.88;;;11.48;61.20
25420;BME280;13354;48.174;11.566;2023-03-08T14:14:46;93789.66;;;11.49;61.40
25420;BME280;13354;48.174;11.566;2023-03-08T14:17:18;93770.59;;;11.52;61.10
25420;BME280;13354;48.174;11.566;2023-03-08T14:19:44;93800.31;;;11.37;61.39
25420;BME280;13354;48.174;11.566;2023-03-08T14:22:16;93768.13;;;11.45;61.16
25420;BME280;13354;48.174;11.566;2023-03-08T14:24:43;93766.50;;;11.44;61.58